sensor_id;sensor_type;location;lat;lon;timestamp;pressure;altitude;pressure_sealevel;temperature;humidity
54308;BME280;40208;39.778;2.710;2023-03-14T00:01:15;100911.00;;;19.31;82.15
54308;BME280;40208;39.778;2.710;2023-03-14T00:04:00;100905.00;;;19.27;83.87
54308;BME280;40208;39.778;2.710;2023-03-14T00:06:48;100902.19;;;19.18;86.44
54308;BME280;40208;39.778;2.710;2023-03-14T00:09:33;100919.06;;;19.31;85.21
54308;BME280;40208;39.778;2.710;2023-03-14T00:12:18;100889.97;;;18.91;87.39
54308;BME280;40208;39.778;2.710;2023-03-14T00:15:04;100920.03;;;19.19;88.92
54308;BME280;40208;39.778;2.710;2023-03-14T00:17:51;100943.53;;;19.05;89.21
54308;BME280;40208;39.778;2.710;2023-03-14T00:20:36;100942.78;;;19.03;91.07
54308;BME280;40208;39.778;2.710;2023-03-14T00:23:21;100945.47;;;19.03;92.52
54308;BME280;40208;39.778;2.710;2023-03-14T00:26:09;100948.63;;;18.97;92.91
54308;BME280;40208;39.778;2.710;2023-03-14T00:28:54;100968.91;;;18.90;94.53
54308;BME280;40208;39.778;2.710;2023-03-14T00:31:39;100981.41;;;18.91;94.48
54308;BME280;40208;39.778;2.710;2023-03-14T00:34:28;100961.19;;;18.85;96.48
54308;BME280;40208;39.778;2.710;2023-03-14T00:37:14;100979.06;;;18.87;96.66
54308;BME280;40208;39.778;2.710;2023-03-14T00:39:58;100982.31;;;18.79;98.65
54308;BME280;40208;39.778;2.710;2023-03-14T00:42:43;100985.47;;;18.73;99.46
54308;BME280;40208;39.778;2.710;2023-03-14T00:45:28;100979.06;;;18.62;99.14
54308;BME280;40208;39.778;2.710;2023-03-14T00:48:14;100996.00;;;18.52;100.00
54308;BME280;40208;39.778;2.710;2023-03-14T00:50:58;100950.44;;;18.26;100.00
54308;BME280;40208;39.778;2.710;2023-03-14T00:53:44;100967.31;;;18.28;100.00
54308;BME280;40208;39.778;2.710;2023-03-14T00:56:30;101000.88;;;18.47;100.00
54308;BME280;40208;39.778;2.710;2023-03-14T00:59:15;100989.47;;;18.19;100.00
54308;BME280;40208;39.778;2.710;2023-03-14T01:02:01;101016.94;;;18.35;100.00
54308;BME280;40208;39.778;2.710;2023-03-14T01:04:48;101020.28;;;18.26;100.00
54308;BME280;40208;39.778;2.710;2023-03-14T01:07:33;101024.13;;;18.11;100.00
54308;BME280;40208;39.778;2.710;2023-03-14T01:10:18;101018.63;;;18.12;100.00
54308;BME280;40208;39.778;2.710;2023-03-14T01:13:03;100989.38;;;17.84;100.00
54308;BME280;40208;39.778;2.710;2023-03-14T01:15:48;101035.63;;;18.00;100.00
54308;BME280;40208;39.778;2.710;2023-03-14T01:18:34;101019.75;;;17.71;100.00
54308;BME280;40208;39.778;2.710;2023-03-14T01:21:27;101026.63;;;17.63;100.00
54308;BME280;40208;39.778;2.710;2023-03-14T01:24:12;101027.06;;;17.31;100.00
54308;BME280;40208;39.778;2.710;2023-03-14T01:26:58;100992.94;;;16.94;100.00
54308;BME280;40208;39.778;2.710;2023-03-14T01:29:42;101013.31;;;17.10;100.00
54308;BME280;40208;39.778;2.710;2023-03-14T01:32:27;101060.44;;;17.14;100.00
54308;BME280;40208;39.778;2.710;2023-03-14T01:35:12;101042.75;;;16.84;100.00
54308;BME280;40208;39.778;2.710;2023-03-14T01:37:57;100947.66;;;16.10;100.00
54308;BME280;40208;39.778;2.710;2023-03-14T01:40:43;101069.47;;;16.59;100.00
54308;BME280;40208;39.778;2.710;2023-03-14T01:43:29;101080.19;;;16.44;100.00
54308;BME280;40208;39.778;2.710;2023-03-14T01:46:20;101080.50;;;16.54;100.00
54308;BME280;40208;39.778;2.710;2023-03-14T01:52:12;101054.38;;;16.16;100.00
54308;BME280;40208;39.778;2.710;2023-03-14T01:57:56;101112.19;;;16.74;100.00
54308;BME280;40208;39.778;2.710;2023-03-14T02:00:43;101029.84;;;16.22;100.00
54308;BME280;40208;39.778;2.710;2023-03-14T02:03:30;101112.19;;;16.74;100.00
54308;BME280;40208;39.778;2.710;2023-03-14T02:06:21;101072.94;;;16.73;100.00
54308;BME280;40208;39.778;2.710;2023-03-14T02:09:09;101102.13;;;16.78;96.99
54308;BME280;40208;39.778;2.710;2023-03-14T02:11:54;101125.78;;;16.71;100.00
54308;BME280;40208;39.778;2.710;2023-03-14T02:14:39;101123.63;;;16.64;100.00
54308;BME280;40208;39.778;2.710;2023-03-14T02:17:26;101124.25;;;16.67;100.00
54308;BME280;40208;39.778;2.710;2023-03-14T02:20:28;101124.25;;;16.67;97.44
54308;BME280;40208;39.778;2.710;2023-03-14T02:23:26;101132.84;;;16.72;99.76
54308;BME280;40208;39.778;2.710;2023-03-14T02:26:21;101137.56;;;16.69;96.60
54308;BME280;40208;39.778;2.710;2023-03-14T02:29:07;101134.56;;;16.46;94.31
54308;BME280;40208;39.778;2.710;2023-03-14T02:31:52;101126.19;;;16.65;94.46
54308;BME280;40208;39.778;2.710;2023-03-14T02:34:38;100917.56;;;15.51;92.38
54308;BME280;40208;39.778;2.710;2023-03-14T02:37:33;101119.19;;;16.63;88.43
54308;BME280;40208;39.778;2.710;2023-03-14T02:40:20;101124.00;;;16.58;89.34
54308;BME280;40208;39.778;2.710;2023-03-14T02:43:05;101121.84;;;16.50;87.57
54308;BME280;40208;39.778;2.710;2023-03-14T02:45:50;101079.75;;;16.38;87.92
54308;BME280;40208;39.778;2.710;2023-03-14T02:48:49;101130.59;;;16.66;90.49
54308;BME280;40208;39.778;2.710;2023-03-14T02:51:36;101132.72;;;16.61;87.95
54308;BME280;40208;39.778;2.710;2023-03-14T02:54:22;101096.91;;;16.35;90.79
54308;BME280;40208;39.778;2.710;2023-03-14T02:57:07;101118.47;;;16.46;89.30
54308;BME280;40208;39.778;2.710;2023-03-14T02:59:51;101123.38;;;16.54;90.70
54308;BME280;40208;39.778;2.710;2023-03-14T03:02:36;101106.91;;;16.46;89.44
54308;BME280;40208;39.778;2.710;2023-03-14T03:05:21;101056.28;;;16.14;90.95
54308;BME280;40208;39.778;2.710;2023-03-14T03:08:06;101053.50;;;16.01;91.81
54308;BME280;40208;39.778;2.710;2023-03-14T03:10:51;101107.03;;;16.30;90.52
54308;BME280;40208;39.778;2.710;2023-03-14T03:13:35;101108.75;;;16.31;91.43
54308;BME280;40208;39.778;2.710;2023-03-14T03:16:20;101114.91;;;16.19;90.18
54308;BME280;40208;39.778;2.710;2023-03-14T03:19:06;101086.69;;;15.99;92.46
54308;BME280;40208;39.778;2.710;2023-03-14T03:21:51;101110.31;;;15.92;94.22
54308;BME280;40208;39.778;2.710;2023-03-14T03:24:36;101127.13;;;15.80;99.00
54308;BME280;40208;39.778;2.710;2023-03-14T03:27:21;101143.47;;;15.75;100.00
54308;BME280;40208;39.778;2.710;2023-03-14T03:30:06;101143.41;;;15.61;100.00
54308;BME280;40208;39.778;2.710;2023-03-14T03:32:52;101116.78;;;15.29;100.00
54308;BME280;40208;39.778;2.710;2023-03-14T03:35:48;101164.19;;;15.41;100.00
54308;BME280;40208;39.778;2.710;2023-03-14T03:38:34;101135.72;;;15.10;100.00
54308;BME280;40208;39.778;2.710;2023-03-14T03:41:18;101168.66;;;15.26;100.00
54308;BME280;40208;39.778;2.710;2023-03-14T03:44:04;101032.22;;;14.36;100.00
54308;BME280;40208;39.778;2.710;2023-03-14T03:46:50;101176.22;;;15.18;100.00
54308;BME280;40208;39.778;2.710;2023-03-14T03:49:35;101191.47;;;15.02;100.00
54308;BME280;40208;39.778;2.710;2023-03-14T03:52:19;101193.69;;;14.94;100.00
54308;BME280;40208;39.778;2.710;2023-03-14T03:55:05;101182.75;;;14.82;100.00
54308;BME280;40208;39.778;2.710;2023-03-14T03:57:49;101052.72;;;14.04;100.00
54308;BME280;40208;39.778;2.710;2023-03-14T04:00:34;101146.97;;;14.53;100.00
54308;BME280;40208;39.778;2.710;2023-03-14T04:03:19;101191.03;;;14.62;100.00
54308;BME280;40208;39.778;2.710;2023-03-14T04:06:09;101193.53;;;14.65;100.00
54308;BME280;40208;39.778;2.710;2023-03-14T04:08:54;101177.31;;;14.68;100.00
54308;BME280;40208;39.778;2.710;2023-03-14T04:11:39;101186.97;;;14.71;100.00
54308;BME280;40208;39.778;2.710;2023-03-14T04:14:24;101132.19;;;14.30;100.00
54308;BME280;40208;39.778;2.710;2023-03-14T04:17:09;101190.44;;;14.39;100.00
54308;BME280;40208;39.778;2.710;2023-03-14T04:19:54;101198.81;;;14.33;100.00
54308;BME280;40208;39.778;2.710;2023-03-14T04:22:39;101214.28;;;14.27;100.00
54308;BME280;40208;39.778;2.710;2023-03-14T04:25:24;101223.19;;;14.10;100.00
54308;BME280;40208;39.778;2.710;2023-03-14T04:28:09;101213.94;;;13.99;100.00
54308;BME280;40208;39.778;2.710;2023-03-14T04:30:54;101208.94;;;13.76;100.00
54308;BME280;40208;39.778;2.710;2023-03-14T04:33:39;101240.19;;;13.74;100.00
54308;BME280;40208;39.778;2.710;2023-03-14T04:36:24;101231.59;;;14.02;100.00
54308;BME280;40208;39.778;2.710;2023-03-14T04:39:09;101209.97;;;14.24;100.00
54308;BME280;40208;39.778;2.710;2023-03-14T04:41:54;101224.97;;;14.42;100.00
54308;BME280;40208;39.778;2.710;2023-03-14T04:44:39;101242.03;;;14.40;100.00
54308;BME280;40208;39.778;2.710;2023-03-14T04:47:24;101254.78;;;14.35;100.00
54308;BME280;40208;39.778;2.710;2023-03-14T04:50:10;101235.41;;;14.14;100.00
54308;BME280;40208;39.778;2.710;2023-03-14T04:52:55;101246.63;;;14.20;100.00
54308;BME280;40208;39.778;2.710;2023-03-14T04:55:40;101243.66;;;14.09;100.00
54308;BME280;40208;39.778;2.710;2023-03-14T04:58:25;101249.59;;;13.98;100.00
54308;BME280;40208;39.778;2.710;2023-03-14T05:01:10;101212.16;;;13.83;100.00
54308;BME280;40208;39.778;2.710;2023-03-14T05:03:55;101234.34;;;13.83;100.00
54308;BME280;40208;39.778;2.710;2023-03-14T05:06:40;101260.56;;;13.75;100.00
54308;BME280;40208;39.778;2.710;2023-03-14T05:09:27;101265.66;;;13.62;100.00
54308;BME280;40208;39.778;2.710;2023-03-14T05:12:12;101269.19;;;13.63;100.00
54308;BME280;40208;39.778;2.710;2023-03-14T05:14:56;101270.66;;;13.51;100.00
54308;BME280;40208;39.778;2.710;2023-03-14T05:17:41;101281.63;;;13.45;100.00
54308;BME280;40208;39.778;2.710;2023-03-14T05:20:26;101269.47;;;13.39;100.00
54308;BME280;40208;39.778;2.710;2023-03-14T05:23:11;101280.06;;;13.41;100.00
54308;BME280;40208;39.778;2.710;2023-03-14T05:25:56;101298.75;;;13.58;100.00
54308;BME280;40208;39.778;2.710;2023-03-14T05:28:41;101291.09;;;13.33;100.00
54308;BME280;40208;39.778;2.710;2023-03-14T05:31:27;101300.38;;;13.43;100.00
54308;BME280;40208;39.778;2.710;2023-03-14T05:34:11;101298.44;;;13.28;100.00
54308;BME280;40208;39.778;2.710;2023-03-14T05:36:57;101268.31;;;12.88;100.00
54308;BME280;40208;39.778;2.710;2023-03-14T05:39:41;101296.84;;;12.86;100.00
54308;BME280;40208;39.778;2.710;2023-03-14T05:42:27;101290.63;;;12.66;100.00
54308;BME280;40208;39.778;2.710;2023-03-14T05:45:12;101302.47;;;12.80;100.00
54308;BME280;40208;39.778;2.710;2023-03-14T05:47:56;101314.19;;;12.76;100.00
54308;BME280;40208;39.778;2.710;2023-03-14T05:50:41;101330.94;;;12.59;100.00
54308;BME280;40208;39.778;2.710;2023-03-14T05:53:26;101326.88;;;12.50;100.00
54308;BME280;40208;39.778;2.710;2023-03-14T05:56:11;101335.84;;;12.47;100.00
54308;BME280;40208;39.778;2.710;2023-03-14T05:58:56;101339.88;;;12.37;100.00
54308;BME280;40208;39.778;2.710;2023-03-14T06:01:41;101297.38;;;12.15;100.00
54308;BME280;40208;39.778;2.710;2023-03-14T06:04:26;101325.53;;;12.19;100.00
54308;BME280;40208;39.778;2.710;2023-03-14T06:07:11;101321.69;;;12.06;100.00
54308;BME280;40208;39.778;2.710;2023-03-14T06:09:56;101307.19;;;11.93;100.00
54308;BME280;40208;39.778;2.710;2023-03-14T06:12:41;101330.88;;;11.99;100.00
54308;BME280;40208;39.778;2.710;2023-03-14T06:15:26;101294.50;;;11.77;100.00
54308;BME280;40208;39.778;2.710;2023-03-14T06:18:11;101337.31;;;11.93;100.00
54308;BME280;40208;39.778;2.710;2023-03-14T06:20:56;101339.75;;;12.20;100.00
54308;BME280;40208;39.778;2.710;2023-03-14T06:23:42;101344.19;;;11.99;100.00
54308;BME280;40208;39.778;2.710;2023-03-14T06:26:27;101355.88;;;11.95;100.00
54308;BME280;40208;39.778;2.710;2023-03-14T06:29:11;101360.44;;;11.91;100.00
54308;BME280;40208;39.778;2.710;2023-03-14T06:31:57;101354.91;;;11.74;100.00
54308;BME280;40208;39.778;2.710;2023-03-14T06:34:42;101351.22;;;11.78;100.00
54308;BME280;40208;39.778;2.710;2023-03-14T06:37:28;101361.19;;;11.73;100.00
54308;BME280;40208;39.778;2.710;2023-03-14T06:40:14;101333.84;;;11.47;100.00
54308;BME280;40208;39.778;2.710;2023-03-14T06:43:02;101351.03;;;11.60;100.00
54308;BME280;40208;39.778;2.710;2023-03-14T06:45:47;101380.19;;;11.84;100.00
54308;BME280;40208;39.778;2.710;2023-03-14T06:48:32;101376.19;;;11.74;100.00
54308;BME280;40208;39.778;2.710;2023-03-14T06:51:17;101398.13;;;11.79;100.00
54308;BME280;40208;39.778;2.710;2023-03-14T06:54:02;101399.22;;;11.75;100.00
54308;BME280;40208;39.778;2.710;2023-03-14T06:56:47;101374.22;;;11.57;100.00
54308;BME280;40208;39.778;2.710;2023-03-14T06:59:32;101389.66;;;11.69;100.00
54308;BME280;40208;39.778;2.710;2023-03-14T07:02:17;101384.34;;;11.69;100.00
54308;BME280;40208;39.778;2.710;2023-03-14T07:05:03;101398.69;;;11.65;100.00
54308;BME280;40208;39.778;2.710;2023-03-14T07:07:48;101389.84;;;11.64;100.00
54308;BME280;40208;39.778;2.710;2023-03-14T07:10:34;101336.00;;;11.37;100.00
54308;BME280;40208;39.778;2.710;2023-03-14T07:13:19;101379.84;;;11.71;100.00
54308;BME280;40208;39.778;2.710;2023-03-14T07:16:04;101397.25;;;12.02;100.00
54308;BME280;40208;39.778;2.710;2023-03-14T07:18:50;101372.16;;;11.85;100.00
54308;BME280;40208;39.778;2.710;2023-03-14T07:21:36;101399.66;;;12.08;100.00
54308;BME280;40208;39.778;2.710;2023-03-14T07:24:21;101355.53;;;11.80;100.00
54308;BME280;40208;39.778;2.710;2023-03-14T07:27:06;101415.13;;;12.20;100.00
54308;BME280;40208;39.778;2.710;2023-03-14T07:29:51;101425.44;;;12.28;100.00
54308;BME280;40208;39.778;2.710;2023-03-14T07:32:36;101385.84;;;12.20;100.00
54308;BME280;40208;39.778;2.710;2023-03-14T07:35:20;101425.31;;;12.51;100.00
54308;BME280;40208;39.778;2.710;2023-03-14T07:38:06;101419.50;;;12.62;100.00
54308;BME280;40208;39.778;2.710;2023-03-14T07:41:00;101419.66;;;12.80;100.00
54308;BME280;40208;39.778;2.710;2023-03-14T07:43:46;101438.41;;;12.97;100.00
54308;BME280;40208;39.778;2.710;2023-03-14T07:46:31;101420.72;;;12.96;100.00
54308;BME280;40208;39.778;2.710;2023-03-14T07:49:16;101403.91;;;13.14;100.00
54308;BME280;40208;39.778;2.710;2023-03-14T07:52:01;101416.16;;;13.56;100.00
54308;BME280;40208;39.778;2.710;2023-03-14T07:54:46;101387.97;;;13.70;100.00
54308;BME280;40208;39.778;2.710;2023-03-14T07:57:31;101430.66;;;14.06;100.00
54308;BME280;40208;39.778;2.710;2023-03-14T08:00:16;101448.50;;;14.23;100.00
54308;BME280;40208;39.778;2.710;2023-03-14T08:03:01;101452.66;;;14.48;100.00
54308;BME280;40208;39.778;2.710;2023-03-14T08:05:50;101406.28;;;14.49;100.00
54308;BME280;40208;39.778;2.710;2023-03-14T08:08:35;101415.00;;;14.87;100.00
54308;BME280;40208;39.778;2.710;2023-03-14T08:11:20;101431.03;;;15.20;100.00
54308;BME280;40208;39.778;2.710;2023-03-14T08:14:05;101452.50;;;15.52;100.00
54308;BME280;40208;39.778;2.710;2023-03-14T08:16:50;101467.63;;;15.85;100.00
54308;BME280;40208;39.778;2.710;2023-03-14T08:19:36;101466.16;;;16.11;100.00
54308;BME280;40208;39.778;2.710;2023-03-14T08:22:21;101460.84;;;16.41;100.00
54308;BME280;40208;39.778;2.710;2023-03-14T08:25:06;101478.91;;;16.68;100.00
54308;BME280;40208;39.778;2.710;2023-03-14T08:27:51;101496.75;;;16.99;100.00
54308;BME280;40208;39.778;2.710;2023-03-14T08:30:36;101498.47;;;17.14;100.00
54308;BME280;40208;39.778;2.710;2023-03-14T08:33:22;101496.50;;;17.32;100.00
54308;BME280;40208;39.778;2.710;2023-03-14T08:36:07;101463.31;;;17.19;100.00
54308;BME280;40208;39.778;2.710;2023-03-14T08:38:52;101454.69;;;17.43;100.00
54308;BME280;40208;39.778;2.710;2023-03-14T08:41:37;101486.88;;;17.86;100.00
54308;BME280;40208;39.778;2.710;2023-03-14T08:44:24;101509.56;;;18.09;100.00
54308;BME280;40208;39.778;2.710;2023-03-14T08:47:09;101505.97;;;18.50;92.75
54308;BME280;40208;39.778;2.710;2023-03-14T08:49:54;101493.84;;;18.57;89.87
54308;BME280;40208;39.778;2.710;2023-03-14T08:52:39;101513.16;;;18.76;92.88
54308;BME280;40208;39.778;2.710;2023-03-14T08:55:25;101486.28;;;18.76;87.66
54308;BME280;40208;39.778;2.710;2023-03-14T08:58:11;101539.91;;;19.05;85.69
54308;BME280;40208;39.778;2.710;2023-03-14T09:00:57;101509.66;;;19.01;80.30
54308;BME280;40208;39.778;2.710;2023-03-14T09:03:42;101552.53;;;19.30;82.05
54308;BME280;40208;39.778;2.710;2023-03-14T09:06:27;101552.94;;;19.24;81.52
54308;BME280;40208;39.778;2.710;2023-03-14T09:09:12;101512.25;;;19.16;78.71
54308;BME280;40208;39.778;2.710;2023-03-14T09:11:57;101570.16;;;19.60;74.75
54308;BME280;40208;39.778;2.710;2023-03-14T09:14:42;101545.63;;;19.52;76.57
54308;BME280;40208;39.778;2.710;2023-03-14T09:17:27;101546.38;;;19.54;75.41
54308;BME280;40208;39.778;2.710;2023-03-14T09:20:12;101556.59;;;19.61;73.40
54308;BME280;40208;39.778;2.710;2023-03-14T09:22:58;101545.97;;;19.47;74.56
54308;BME280;40208;39.778;2.710;2023-03-14T09:25:43;101563.19;;;19.57;74.94
54308;BME280;40208;39.778;2.710;2023-03-14T09:28:28;101586.56;;;19.57;76.22
54308;BME280;40208;39.778;2.710;2023-03-14T09:31:13;101588.28;;;19.58;77.21
54308;BME280;40208;39.778;2.710;2023-03-14T09:33:58;101594.78;;;19.68;74.02
54308;BME280;40208;39.778;2.710;2023-03-14T09:36:43;101586.06;;;19.77;71.60
54308;BME280;40208;39.778;2.710;2023-03-14T09:39:29;101591.97;;;19.82;73.42
54308;BME280;40208;39.778;2.710;2023-03-14T09:42:17;101613.28;;;19.85;71.30
54308;BME280;40208;39.778;2.710;2023-03-14T09:45:07;101615.78;;;19.88;70.86
54308;BME280;40208;39.778;2.710;2023-03-14T09:47:55;101566.75;;;19.70;71.58
54308;BME280;40208;39.778;2.710;2023-03-14T09:50:44;101606.41;;;19.94;69.49
54308;BME280;40208;39.778;2.710;2023-03-14T09:54:00;101609.00;;;19.96;66.63
54308;BME280;40208;39.778;2.710;2023-03-14T09:56:45;101592.59;;;19.86;62.84
54308;BME280;40208;39.778;2.710;2023-03-14T09:59:31;101605.53;;;19.94;61.42
54308;BME280;40208;39.778;2.710;2023-03-14T10:05:23;101616.72;;;20.00;66.58
54308;BME280;40208;39.778;2.710;2023-03-14T10:08:13;101621.06;;;20.03;65.63
54308;BME280;40208;39.778;2.710;2023-03-14T10:10:58;101605.75;;;20.03;67.41
54308;BME280;40208;39.778;2.710;2023-03-14T10:16:44;101629.63;;;20.33;64.65
54308;BME280;40208;39.778;2.710;2023-03-14T10:19:30;101638.03;;;20.29;67.71
54308;BME280;40208;39.778;2.710;2023-03-14T10:22:15;101623.41;;;20.44;66.14
54308;BME280;40208;39.778;2.710;2023-03-14T10:25:04;101629.22;;;20.51;66.36
54308;BME280;40208;39.778;2.710;2023-03-14T10:27:49;101619.41;;;20.50;65.97
54308;BME280;40208;39.778;2.710;2023-03-14T10:30:45;101607.00;;;20.60;66.05
54308;BME280;40208;39.778;2.710;2023-03-14T10:33:35;101605.09;;;20.73;65.97
54308;BME280;40208;39.778;2.710;2023-03-14T10:36:24;101574.06;;;20.68;65.66
54308;BME280;40208;39.778;2.710;2023-03-14T10:54:04;101561.47;;;21.50;62.62
54308;BME280;40208;39.778;2.710;2023-03-14T10:56:58;101561.44;;;21.62;63.02
54308;BME280;40208;39.778;2.710;2023-03-14T10:59:44;101560.84;;;21.69;62.48
54308;BME280;40208;39.778;2.710;2023-03-14T11:05:43;101574.22;;;21.82;64.25
54308;BME280;40208;39.778;2.710;2023-03-14T11:11:49;101583.69;;;21.99;61.06
54308;BME280;40208;39.778;2.710;2023-03-14T11:14:41;101589.72;;;21.91;60.18
54308;BME280;40208;39.778;2.710;2023-03-14T11:17:50;101463.06;;;21.08;61.13
54308;BME280;40208;39.778;2.710;2023-03-14T11:30:33;101566.25;;;22.03;58.12
54308;BME280;40208;39.778;2.710;2023-03-14T11:33:38;101597.09;;;22.23;54.64
54308;BME280;40208;39.778;2.710;2023-03-14T11:36:33;101581.81;;;22.11;58.79
54308;BME280;40208;39.778;2.710;2023-03-14T11:39:23;101570.63;;;22.15;57.66
54308;BME280;40208;39.778;2.710;2023-03-14T11:42:16;101572.00;;;22.32;57.71
54308;BME280;40208;39.778;2.710;2023-03-14T11:45:02;101557.00;;;22.17;58.65
54308;BME280;40208;39.778;2.710;2023-03-14T11:50:56;101545.59;;;22.25;58.32
54308;BME280;40208;39.778;2.710;2023-03-14T11:53:59;101537.69;;;22.33;57.92
54308;BME280;40208;39.778;2.710;2023-03-14T11:56:54;101534.47;;;22.39;58.23
54308;BME280;40208;39.778;2.710;2023-03-14T12:02:51;101534.63;;;22.15;59.08
54308;BME280;40208;39.778;2.710;2023-03-14T12:08:39;101523.00;;;22.47;54.42
54308;BME280;40208;39.778;2.710;2023-03-14T12:11:45;101514.41;;;22.53;55.44
54308;BME280;40208;39.778;2.710;2023-03-14T12:14:34;101505.84;;;22.69;55.27
54308;BME280;40208;39.778;2.710;2023-03-14T12:17:21;101491.22;;;22.92;52.80
54308;BME280;40208;39.778;2.710;2023-03-14T12:20:18;101488.34;;;22.73;55.53
54308;BME280;40208;39.778;2.710;2023-03-14T12:23:10;101500.34;;;22.59;56.44
54308;BME280;40208;39.778;2.710;2023-03-14T12:26:15;101484.19;;;22.48;57.17
54308;BME280;40208;39.778;2.710;2023-03-14T12:32:08;101486.28;;;22.65;56.51
54308;BME280;40208;39.778;2.710;2023-03-14T12:34:54;101383.91;;;21.96;57.79
54308;BME280;40208;39.778;2.710;2023-03-14T12:37:45;101459.06;;;22.25;58.19
54308;BME280;40208;39.778;2.710;2023-03-14T12:40:37;101411.22;;;21.93;58.54
54308;BME280;40208;39.778;2.710;2023-03-14T12:43:30;101483.22;;;22.37;57.75
54308;BME280;40208;39.778;2.710;2023-03-14T12:49:07;101469.69;;;22.37;58.01
54308;BME280;40208;39.778;2.710;2023-03-14T12:52:01;101464.03;;;22.40;58.34
54308;BME280;40208;39.778;2.710;2023-03-14T13:01:16;101461.38;;;22.18;60.41
54308;BME280;40208;39.778;2.710;2023-03-14T13:04:11;101452.88;;;22.34;57.57
54308;BME280;40208;39.778;2.710;2023-03-14T13:06:58;101448.31;;;22.34;57.43
54308;BME280;40208;39.778;2.710;2023-03-14T13:09:53;101421.06;;;22.26;57.69
54308;BME280;40208;39.778;2.710;2023-03-14T13:15:38;101424.84;;;22.56;55.64
54308;BME280;40208;39.778;2.710;2023-03-14T13:18:28;101429.00;;;22.60;58.04
54308;BME280;40208;39.778;2.710;2023-03-14T13:21:19;101429.81;;;22.51;57.32
54308;BME280;40208;39.778;2.710;2023-03-14T13:24:06;101403.59;;;22.30;57.82
54308;BME280;40208;39.778;2.710;2023-03-14T13:26:54;101417.44;;;22.37;58.54
54308;BME280;40208;39.778;2.710;2023-03-14T13:29:41;101430.69;;;22.40;59.14
54308;BME280;40208;39.778;2.710;2023-03-14T13:32:28;101431.25;;;22.34;57.73
54308;BME280;40208;39.778;2.710;2023-03-14T13:35:27;101424.72;;;22.36;57.16
54308;BME280;40208;39.778;2.710;2023-03-14T13:38:15;101417.72;;;22.34;57.01
54308;BME280;40208;39.778;2.710;2023-03-14T13:41:03;101382.38;;;22.14;57.24
54308;BME280;40208;39.778;2.710;2023-03-14T13:43:49;101416.72;;;22.35;56.50
54308;BME280;40208;39.778;2.710;2023-03-14T13:46:36;101421.72;;;22.39;55.75
54308;BME280;40208;39.778;2.710;2023-03-14T13:49:22;101420.94;;;22.49;54.76
54308;BME280;40208;39.778;2.710;2023-03-14T13:52:28;101422.34;;;22.43;56.25
54308;BME280;40208;39.778;2.710;2023-03-14T13:55:16;101417.66;;;22.45;55.83
54308;BME280;40208;39.778;2.710;2023-03-14T13:58:02;101411.38;;;22.44;52.89
54308;BME280;40208;39.778;2.710;2023-03-14T14:01:18;101417.47;;;22.58;53.62
54308;BME280;40208;39.778;2.710;2023-03-14T14:04:08;101422.16;;;22.56;54.34
54308;BME280;40208;39.778;2.710;2023-03-14T14:07:00;101313.03;;;21.92;53.60
54308;BME280;40208;39.778;2.710;2023-03-14T14:09:52;101411.94;;;22.59;52.29
54308;BME280;40208;39.778;2.710;2023-03-14T14:13:02;101409.28;;;22.48;53.05
54308;BME280;40208;39.778;2.710;2023-03-14T14:15:49;101425.06;;;22.43;51.14
54308;BME280;40208;39.778;2.710;2023-03-14T14:18:36;101414.47;;;22.40;53.66
54308;BME280;40208;39.778;2.710;2023-03-14T14:21:21;101383.53;;;22.00;54.08
54308;BME280;40208;39.778;2.710;2023-03-14T14:24:10;101414.09;;;22.12;53.17
54308;BME280;40208;39.778;2.710;2023-03-14T14:30:05;101383.22;;;21.83;53.64
54308;BME280;40208;39.778;2.710;2023-03-14T14:32:51;101352.69;;;21.71;52.43
54308;BME280;40208;39.778;2.710;2023-03-14T14:35:36;101407.63;;;21.92;51.07
54308;BME280;40208;39.778;2.710;2023-03-14T14:38:21;101392.88;;;21.96;49.28
54308;BME280;40208;39.778;2.710;2023-03-14T14:41:11;101399.75;;;22.00;50.87
54308;BME280;40208;39.778;2.710;2023-03-14T14:43:57;101395.00;;;21.93;51.59
54308;BME280;40208;39.778;2.710;2023-03-14T14:46:43;101397.31;;;21.97;52.25
54308;BME280;40208;39.778;2.710;2023-03-14T14:49:30;101385.44;;;21.77;53.53
54308;BME280;40208;39.778;2.710;2023-03-14T14:52:20;101369.53;;;21.63;52.58
54308;BME280;40208;39.778;2.710;2023-03-14T14:55:12;101401.75;;;21.87;50.17
54308;BME280;40208;39.778;2.710;2023-03-14T14:57:57;101350.88;;;21.60;51.08
54308;BME280;40208;39.778;2.710;2023-03-14T15:00:54;101403.97;;;21.93;51.48
54308;BME280;40208;39.778;2.710;2023-03-14T15:03:42;101402.97;;;21.94;51.58
54308;BME280;40208;39.778;2.710;2023-03-14T15:06:29;101400.06;;;21.75;53.22
54308;BME280;40208;39.778;2.710;2023-03-14T15:09:15;101412.09;;;21.82;51.20
54308;BME280;40208;39.778;2.710;2023-03-14T15:12:02;101370.16;;;21.67;51.44
54308;BME280;40208;39.778;2.710;2023-03-14T15:14:47;101381.81;;;21.67;53.35
54308;BME280;40208;39.778;2.710;2023-03-14T15:17:33;101372.75;;;21.57;53.76
54308;BME280;40208;39.778;2.710;2023-03-14T15:20:18;101381.34;;;21.62;52.21
54308;BME280;40208;39.778;2.710;2023-03-14T15:23:11;101380.72;;;21.58;54.45
54308;BME280;40208;39.778;2.710;2023-03-14T15:25:56;101323.78;;;21.28;53.00
54308;BME280;40208;39.778;2.710;2023-03-14T15:28:42;101373.63;;;21.46;54.32
54308;BME280;40208;39.778;2.710;2023-03-14T15:31:27;101377.44;;;21.44;52.29
54308;BME280;40208;39.778;2.710;2023-03-14T15:34:12;101379.88;;;21.47;54.13
54308;BME280;40208;39.778;2.710;2023-03-14T15:36:57;101381.69;;;21.35;53.99
54308;BME280;40208;39.778;2.710;2023-03-14T15:39:42;101383.91;;;21.30;53.96